Time;durP1;ratioP1;P1;durP2;ratioP2;P2;SDS_P1;SDS_P2;PMS_P1;PMS_P2;Temp;Humidity;BMP_temperature;BMP_pressure;BME280_temperature;BME280_humidity;BME280_pressure;Samples;Min_cycle;Max_cycle;Signal;HPM_P1;HPM_P2
2020/12/19 00:00:19;;;;;;;36.77;17.77;;;;;;;-0.75;100.00;101586.56;5020987;28;20048;-71
2020/12/19 00:02:45;;;;;;;47.67;21.17;;;;;;;-0.67;100.00;101579.97;5023554;28;20095;-73
2020/12/19 00:05:11;;;;;;;43.60;19.20;;;;;;;-0.60;100.00;101584.56;5025087;28;20087;-73
2020/12/19 00:07:38;;;;;;;45.13;18.97;;;;;;;-0.61;100.00;101584.50;5027388;28;20045;-72
2020/12/19 00:10:04;;;;;;;58.53;23.03;;;;;;;-0.57;100.00;101586.41;5025426;28;20033;-72
2020/12/19 00:12:30;;;;;;;62.97;23.87;;;;;;;-0.55;100.00;101579.56;5023224;28;20506;-72
2020/12/19 00:14:57;;;;;;;50.83;22.57;;;;;;;-0.57;100.00;101584.69;5023793;28;20045;-72
2020/12/19 00:17:23;;;;;;;40.77;19.20;;;;;;;-0.59;100.00;101581.16;5026168;28;20041;-71
2020/12/19 00:19:49;;;;;;;40.83;18.13;;;;;;;-0.68;100.00;101569.50;5026879;28;20050;-72
2020/12/19 00:22:15;;;;;;;39.50;18.90;;;;;;;-0.74;100.00;101559.78;5028510;28;20045;-72
2020/12/19 00:24:42;;;;;;;46.33;20.33;;;;;;;-0.73;100.00;101564.16;5006114;28;20041;-72
2020/12/19 00:27:09;;;;;;;35.43;16.23;;;;;;;-0.80;100.00;101563.84;5020751;28;20038;-72
2020/12/19 00:29:35;;;;;;;43.17;17.27;;;;;;;-0.86;100.00;101561.88;5021201;28;20049;-71
2020/12/19 00:32:02;;;;;;;36.90;17.83;;;;;;;-0.91;100.00;101563.44;5023527;28;20512;-71
2020/12/19 00:34:28;;;;;;;34.97;17.07;;;;;;;-0.96;100.00;101558.03;5041731;28;20044;-72
2020/12/19 00:36:54;;;;;;;41.63;19.40;;;;;;;-0.93;100.00;101546.88;5009150;28;20041;-72
2020/12/19 00:39:20;;;;;;;39.30;16.77;;;;;;;-0.94;100.00;101558.09;4987848;23;20074;-70
2020/12/19 00:41:47;;;;;;;54.50;22.53;;;;;;;-0.88;100.00;101556.63;4998477;28;20092;-69
2020/12/19 00:44:13;;;;;;;52.90;20.70;;;;;;;-0.90;100.00;101553.09;4984470;28;20065;-70
2020/12/19 00:46:39;;;;;;;38.37;17.30;;;;;;;-0.96;100.00;101550.25;4984446;28;20103;-70
2020/12/19 00:49:05;;;;;;;38.43;15.83;;;;;;;-1.06;100.00;101558.50;5007171;28;20046;-70
2020/12/19 00:51:31;;;;;;;35.43;17.07;;;;;;;-1.14;100.00;101550.41;4985244;28;20147;-70
2020/12/19 00:53:57;;;;;;;44.73;17.23;;;;;;;-1.14;100.00;101559.88;4991526;28;20037;-70
2020/12/19 00:56:30;;;;;;;41.90;19.33;;;;;;;-1.14;100.00;101553.00;4988757;28;20518;-71
2020/12/19 00:58:56;;;;;;;43.50;19.63;;;;;;;-1.04;100.00;101562.03;5001698;28;20041;-70
2020/12/19 01:01:24;;;;;;;42.87;18.73;;;;;;;-1.07;100.00;101558.44;4988083;28;20092;-71
2020/12/19 01:03:54;;;;;;;44.40;17.33;;;;;;;-1.05;100.00;101556.78;4987109;28;20046;-70
2020/12/19 01:06:22;;;;;;;42.63;17.03;;;;;;;-1.06;100.00;101560.19;4988448;28;20044;-70
2020/12/19 01:08:53;;;;;;;37.40;16.33;;;;;;;-1.14;100.00;101553.00;4988283;28;21057;-70
2020/12/19 01:11:32;;;;;;;40.20;18.43;;;;;;;-1.14;100.00;101549.50;4988317;28;20095;-70
2020/12/19 01:13:58;;;;;;;44.80;20.13;;;;;;;-1.06;100.00;101555.03;4999516;28;20095;-70
2020/12/19 01:16:27;;;;;;;49.33;20.83;;;;;;;-0.93;100.00;101550.38;4984951;28;20050;-70
2020/12/19 01:18:54;;;;;;;54.33;22.10;;;;;;;-0.99;100.00;101551.84;5010449;28;20100;-70
2020/12/19 01:21:22;;;;;;;42.03;19.00;;;;;;;-1.06;100.00;101552.44;4991403;28;20041;-70
2020/12/19 01:23:49;;;;;;;53.90;22.63;;;;;;;-1.00;100.00;101548.38;4982535;28;20033;-71
2020/12/19 01:26:16;;;;;;;49.03;20.00;;;;;;;-1.02;100.00;101546.53;4983463;28;20495;-70
2020/12/19 01:28:42;;;;;;;49.57;21.23;;;;;;;-1.09;100.00;101544.50;4984255;28;20042;-72
2020/12/19 01:31:10;;;;;;;39.63;17.07;;;;;;;-1.18;100.00;101555.38;4975817;28;20061;-72
2020/12/19 01:33:37;;;;;;;50.17;20.10;;;;;;;-1.19;100.00;101559.69;4976260;28;20446;-72
2020/12/19 01:36:10;;;;;;;40.23;18.60;;;;;;;-1.23;100.00;101552.63;4985926;28;20069;-72
2020/12/19 01:38:36;;;;;;;50.40;21.37;;;;;;;-1.24;100.00;101550.84;4979515;28;20041;-72
2020/12/19 01:41:03;;;;;;;39.97;17.97;;;;;;;-1.29;100.00;101549.75;4985256;28;20034;-72
2020/12/19 01:44:00;;;;;;;43.33;17.27;;;;;;;-1.26;100.00;101546.41;4984195;28;20646;-72
2020/12/19 01:46:53;;;;;;;53.73;21.73;;;;;;;-1.21;100.00;101543.19;5000978;28;20038;-71
2020/12/19 01:49:21;;;;;;;44.77;19.97;;;;;;;-1.25;100.00;101546.50;4981985;28;20069;-72
2020/12/19 01:51:50;;;;;;;52.43;22.20;;;;;;;-1.28;100.00;101538.56;4969031;28;20045;-72
2020/12/19 01:54:17;;;;;;;41.60;18.63;;;;;;;-1.29;100.00;101539.38;4988854;28;20046;-72
2020/12/19 01:56:48;;;;;;;52.30;22.27;;;;;;;-1.29;100.00;101534.22;4988972;28;20391;-72
2020/12/19 01:59:16;;;;;;;44.07;19.60;;;;;;;-1.33;100.00;101528.84;4970455;28;20537;-72
2020/12/19 02:01:47;;;;;;;57.73;22.17;;;;;;;-1.34;100.00;101524.50;5004591;28;20037;-72
2020/12/19 02:04:14;;;;;;;52.43;22.07;;;;;;;-1.35;100.00;101518.38;5002087;28;20034;-72
2020/12/19 02:06:41;;;;;;;48.50;20.10;;;;;;;-1.37;100.00;101514.84;4992920;28;20046;-72
2020/12/19 02:09:07;;;;;;;44.67;20.33;;;;;;;-1.32;100.00;101513.34;4995640;28;20029;-72
2020/12/19 02:11:34;;;;;;;44.33;18.50;;;;;;;-1.36;100.00;101518.34;4993041;28;20155;-71
2020/12/19 02:14:00;;;;;;;57.20;20.60;;;;;;;-1.41;100.00;101512.97;5000188;28;20112;-72
2020/12/19 02:16:26;;;;;;;55.80;21.13;;;;;;;-1.43;100.00;101514.59;4973100;28;20760;-70
2020/12/19 02:18:52;;;;;;;56.13;21.13;;;;;;;-1.46;100.00;101515.38;5000232;28;20052;-71
2020/12/19 02:21:19;;;;;;;49.87;19.77;;;;;;;-1.48;100.00;101513.53;4982757;28;20072;-71
2020/12/19 02:23:45;;;;;;;54.80;22.73;;;;;;;-1.42;100.00;101514.69;4990110;28;20109;-71
2020/12/19 02:26:11;;;;;;;60.07;23.30;;;;;;;-1.42;100.00;101506.91;4995721;28;20058;-70
2020/12/19 02:28:37;;;;;;;53.33;24.07;;;;;;;-1.37;100.00;101503.59;5004290;28;20100;-71
2020/12/19 02:31:03;;;;;;;49.03;21.07;;;;;;;-1.38;100.00;101507.91;4992539;28;20050;-70
2020/12/19 02:33:29;;;;;;;55.70;20.53;;;;;;;-1.43;100.00;101504.22;5003240;28;20084;-71
2020/12/19 02:36:06;;;;;;;55.37;21.83;;;;;;;-1.47;100.00;101497.16;4972390;28;20073;-70
2020/12/19 02:38:32;;;;;;;49.03;20.90;;;;;;;-1.46;100.00;101496.34;4985130;28;20046;-70
2020/12/19 02:40:58;;;;;;;47.67;19.33;;;;;;;-1.50;100.00;101491.88;4986820;28;20041;-68
2020/12/19 02:43:24;;;;;;;57.10;22.30;;;;;;;-1.53;100.00;101491.72;5005395;28;20123;-70
2020/12/19 02:45:50;;;;;;;53.23;21.83;;;;;;;-1.55;100.00;101488.19;4984414;28;20039;-71
2020/12/19 02:48:16;;;;;;;48.60;18.33;;;;;;;-1.61;100.00;101477.56;5004835;28;20038;-70
2020/12/19 02:50:43;;;;;;;56.73;23.37;;;;;;;-1.65;100.00;101484.34;4989509;28;20123;-70
2020/12/19 02:53:09;;;;;;;53.27;23.97;;;;;;;-1.62;100.00;101486.16;5003904;28;20046;-70
2020/12/19 02:55:35;;;;;;;49.40;19.93;;;;;;;-1.64;100.00;101480.91;4972163;28;20033;-70
2020/12/19 02:58:01;;;;;;;53.00;21.17;;;;;;;-1.62;100.00;101478.38;4989439;28;20046;-70
2020/12/19 03:00:28;;;;;;;49.33;22.17;;;;;;;-1.61;100.00;101482.75;4984849;28;20390;-70
2020/12/19 03:02:54;;;;;;;48.73;20.93;;;;;;;-1.62;100.00;101479.25;4966641;28;20045;-70
2020/12/19 03:05:20;;;;;;;48.07;20.03;;;;;;;-1.62;100.00;101480.97;5001439;28;20115;-70
2020/12/19 03:07:46;;;;;;;35.10;17.50;;;;;;;-1.72;100.00;101475.41;4984480;28;20490;-71
2020/12/19 03:10:13;;;;;;;42.63;18.47;;;;;;;-1.78;100.00;101484.63;5004425;28;20120;-71
2020/12/19 03:12:39;;;;;;;47.97;19.60;;;;;;;-1.80;100.00;101475.91;4988106;28;20044;-70
2020/12/19 03:15:05;;;;;;;49.87;20.90;;;;;;;-1.84;100.00;101477.50;4999806;28;20096;-70
2020/12/19 03:17:31;;;;;;;50.10;19.43;;;;;;;-1.85;100.00;101473.13;4986462;28;20072;-70
2020/12/19 03:19:57;;;;;;;41.20;19.13;;;;;;;-1.90;100.00;101478.94;4996559;28;20119;-70
2020/12/19 03:22:23;;;;;;;55.53;22.60;;;;;;;-1.84;100.00;101468.84;5003104;28;20060;-71
2020/12/19 03:24:49;;;;;;;48.90;21.53;;;;;;;-1.84;100.00;101469.72;4987214;28;20042;-70
2020/12/19 03:27:15;;;;;;;49.83;21.57;;;;;;;-1.85;100.00;101470.56;4983698;28;20054;-71
2020/12/19 03:29:42;;;;;;;45.67;19.47;;;;;;;-1.80;100.00;101473.31;4978740;28;20038;-70
2020/12/19 03:32:08;;;;;;;49.77;19.67;;;;;;;-1.85;100.00;101473.13;4986970;28;20156;-71
2020/12/19 03:34:34;;;;;;;63.03;24.93;;;;;;;-1.83;100.00;101480.97;4983332;28;20033;-71
2020/12/19 03:37:00;;;;;;;56.03;22.17;;;;;;;-1.80;100.00;101475.91;5002313;28;20038;-70
2020/12/19 03:39:26;;;;;;;55.93;24.27;;;;;;;-1.80;100.00;101474.19;4982850;28;20046;-71
2020/12/19 03:41:52;;;;;;;64.70;24.83;;;;;;;-1.74;100.00;101471.00;5000043;28;20034;-70
2020/12/19 03:44:18;;;;;;;50.07;22.03;;;;;;;-1.75;100.00;101472.69;4986684;28;20038;-71
2020/12/19 03:46:45;;;;;;;71.00;26.43;;;;;;;-1.77;100.00;101474.31;4987941;28;20046;-70
2020/12/19 03:49:11;;;;;;;46.10;19.97;;;;;;;-1.82;100.00;101478.44;4982984;28;20041;-69
2020/12/19 03:51:37;;;;;;;50.20;21.77;;;;;;;-1.81;100.00;101461.19;4983532;28;20065;-70
2020/12/19 03:54:03;;;;;;;51.50;22.53;;;;;;;-1.83;100.00;101470.59;4971795;28;20033;-70
2020/12/19 03:56:29;;;;;;;48.40;21.00;;;;;;;-1.88;100.00;101470.41;5000576;28;20070;-69
2020/12/19 03:58:55;;;;;;;49.70;19.90;;;;;;;-1.86;100.00;101465.28;4999134;28;20522;-70
2020/12/19 04:01:22;;;;;;;41.23;20.17;;;;;;;-1.92;100.00;101472.81;4984573;28;20087;-70
2020/12/19 04:03:48;;;;;;;36.60;16.60;;;;;;;-2.01;100.00;101473.31;5003266;28;20038;-71
2020/12/19 04:06:15;;;;;;;47.10;18.57;;;;;;;-2.03;100.00;101461.97;4986519;28;20131;-69
2020/12/19 04:08:41;;;;;;;50.37;23.17;;;;;;;-2.03;100.00;101462.84;4986404;28;20050;-70
2020/12/19 04:11:07;;;;;;;45.03;19.67;;;;;;;-2.01;100.00;101465.53;4991380;28;20042;-69
2020/12/19 04:13:34;;;;;;;49.33;21.17;;;;;;;-2.03;100.00;101468.03;5007322;28;20045;-71
2020/12/19 04:16:00;;;;;;;41.27;16.77;;;;;;;-2.06;100.00;101456.66;5007108;28;20050;-71
2020/12/19 04:18:26;;;;;;;57.53;21.10;;;;;;;-2.03;100.00;101457.66;4972283;28;20045;-71
2020/12/19 04:20:53;;;;;;;40.43;18.53;;;;;;;-2.07;100.00;101450.59;4987898;28;20061;-70
2020/12/19 04:23:19;;;;;;;43.73;18.57;;;;;;;-2.12;100.00;101451.22;4988013;28;20065;-70
2020/12/19 04:25:47;;;;;;;58.40;23.50;;;;;;;-2.05;100.00;101456.72;4992105;28;20044;-69
2020/12/19 04:28:13;;;;;;;54.40;22.60;;;;;;;-2.03;100.00;101444.72;4989199;28;20046;-70
2020/12/19 04:30:39;;;;;;;46.27;20.30;;;;;;;-2.02;100.00;101451.69;4989215;28;20140;-69
2020/12/19 04:33:05;;;;;;;54.23;23.07;;;;;;;-2.00;100.00;101446.59;5008686;28;20434;-70
2020/12/19 04:35:32;;;;;;;49.77;19.47;;;;;;;-2.03;100.00;101446.44;5008177;28;20034;-70
2020/12/19 04:37:58;;;;;;;43.53;19.67;;;;;;;-2.01;100.00;101444.81;5003526;28;20129;-69
2020/12/19 04:40:24;;;;;;;87.07;27.87;;;;;;;-1.94;100.00;101452.00;5004881;28;20565;-70
2020/12/19 04:42:50;;;;;;;69.30;25.60;;;;;;;-1.90;100.00;101448.75;4987902;28;20050;-69
2020/12/19 04:45:16;;;;;;;67.10;25.57;;;;;;;-1.90;100.00;101440.97;4991549;28;20076;-70
2020/12/19 04:47:44;;;;;;;63.10;26.00;;;;;;;-1.88;100.00;101441.03;5006782;28;20153;-70
2020/12/19 04:50:12;;;;;;;54.63;21.23;;;;;;;-1.95;100.00;101439.00;4986529;28;20139;-70
2020/12/19 04:52:38;;;;;;;49.50;20.23;;;;;;;-1.99;100.00;101436.28;4990965;28;22099;-69
2020/12/19 04:55:04;;;;;;;58.53;24.27;;;;;;;-1.83;100.00;101435.22;4988215;28;20088;-70
2020/12/19 04:57:30;;;;;;;72.27;27.17;;;;;;;-1.70;100.00;101432.31;4975093;28;20057;-69
2020/12/19 04:59:56;;;;;;;59.27;22.30;;;;;;;-1.66;100.00;101440.22;4990624;28;20128;-70
2020/12/19 05:02:23;;;;;;;63.50;26.30;;;;;;;-1.69;100.00;101435.78;4991333;28;20501;-70
2020/12/19 05:04:49;;;;;;;57.60;23.30;;;;;;;-1.78;100.00;101435.41;4995811;28;20077;-70
2020/12/19 05:07:18;;;;;;;62.30;25.13;;;;;;;-1.80;100.00;101435.34;4972996;28;20061;-70
2020/12/19 05:09:44;;;;;;;57.57;22.30;;;;;;;-1.81;100.00;101433.59;5005134;28;20046;-70
2020/12/19 05:12:12;;;;;;;61.23;25.53;;;;;;;-1.79;100.00;101437.13;4988092;28;20069;-70
2020/12/19 05:14:38;;;;;;;62.03;25.20;;;;;;;-1.76;100.00;101428.59;4973797;28;20095;-70
2020/12/19 05:17:04;;;;;;;56.43;23.53;;;;;;;-1.85;100.00;101425.59;4975480;28;20045;-70
2020/12/19 05:19:31;;;;;;;45.37;19.53;;;;;;;-1.87;100.00;101430.72;5006000;28;20172;-70
2020/12/19 05:21:58;;;;;;;63.00;24.13;;;;;;;-1.79;100.00;101434.53;5005408;28;20053;-69
2020/12/19 05:24:28;;;;;;;56.50;21.30;;;;;;;-1.83;100.00;101426.59;4985920;28;20149;-70
2020/12/19 05:26:55;;;;;;;59.43;23.43;;;;;;;-1.84;100.00;101430.88;4988943;28;20564;-70
2020/12/19 05:29:21;;;;;;;54.33;23.30;;;;;;;-1.81;100.00;101435.28;5001911;28;20041;-70
2020/12/19 05:31:53;;;;;;;51.23;19.83;;;;;;;-1.89;100.00;101432.38;4991743;28;20552;-70
2020/12/19 05:34:21;;;;;;;48.07;19.70;;;;;;;-1.89;100.00;101431.50;5001045;28;20703;-70
2020/12/19 05:36:49;;;;;;;58.80;23.27;;;;;;;-1.84;100.00;101433.47;4986381;28;20524;-70
2020/12/19 05:39:17;;;;;;;42.33;19.33;;;;;;;-1.86;100.00;101434.19;4969270;28;20056;-70
2020/12/19 05:41:44;;;;;;;68.57;27.00;;;;;;;-1.80;100.00;101435.34;4971002;28;20048;-69
2020/12/19 05:44:12;;;;;;;70.03;27.13;;;;;;;-1.74;100.00;101438.19;4999794;28;20044;-70
2020/12/19 05:46:40;;;;;;;56.10;22.53;;;;;;;-1.79;100.00;101431.94;5005371;28;20042;-69
2020/12/19 05:49:08;;;;;;;48.03;20.40;;;;;;;-1.84;100.00;101428.28;4983487;28;20045;-70
2020/12/19 05:51:35;;;;;;;44.43;20.63;;;;;;;-1.88;100.00;101422.91;5003589;28;20107;-69
2020/12/19 05:54:13;;;;;;;50.77;20.63;;;;;;;-1.92;100.00;101434.84;4999202;28;20065;-69
2020/12/19 05:56:50;;;;;;;60.23;22.77;;;;;;;-1.92;100.00;101434.84;5000249;28;20095;-69
2020/12/19 05:59:19;;;;;;;54.23;21.77;;;;;;;-1.90;100.00;101424.53;4986570;28;20042;-70
2020/12/19 06:01:46;;;;;;;51.63;21.40;;;;;;;-1.89;100.00;101432.38;4984808;28;20045;-70
2020/12/19 06:04:13;;;;;;;51.20;21.50;;;;;;;-1.98;100.00;101430.28;4983583;28;20048;-70
2020/12/19 06:06:41;;;;;;;54.60;21.63;;;;;;;-2.00;100.00;101428.47;4983926;28;20700;-70
2020/12/19 06:09:09;;;;;;;50.80;21.80;;;;;;;-1.95;100.00;101431.22;4985750;28;20038;-70
2020/12/19 06:12:13;;;;;;;56.43;21.80;;;;;;;-1.95;100.00;101432.09;4985743;28;20042;-70
2020/12/19 06:14:41;;;;;;;46.83;20.70;;;;;;;-1.98;100.00;101425.09;4982950;28;20049;-70
2020/12/19 06:17:19;;;;;;;49.70;20.43;;;;;;;-2.05;100.00;101425.66;4987063;28;20038;-70
2020/12/19 06:19:46;;;;;;;38.23;16.97;;;;;;;-2.10;100.00;101434.03;5002235;28;20538;-70
2020/12/19 06:22:14;;;;;;;44.40;18.90;;;;;;;-2.15;100.00;101436.44;4995529;28;20460;-70
2020/12/19 06:24:47;;;;;;;41.47;18.57;;;;;;;-2.21;100.00;101435.28;4969100;28;20095;-69
2020/12/19 06:27:17;;;;;;;50.57;19.80;;;;;;;-2.17;100.00;101439.81;5001236;28;20034;-70
2020/12/19 06:29:44;;;;;;;37.73;17.57;;;;;;;-2.21;100.00;101432.69;4988635;28;20050;-69
2020/12/19 06:32:20;;;;;;;43.43;19.23;;;;;;;-2.26;100.00;101432.53;4969113;28;20053;-69
2020/12/19 06:35:05;;;;;;;40.83;18.33;;;;;;;-2.26;100.00;101437.69;5001408;28;20087;-68
2020/12/19 06:37:36;;;;;;;43.43;17.57;;;;;;;-2.28;100.00;101434.13;5000268;28;20045;-68
2020/12/19 06:40:10;;;;;;;41.07;17.47;;;;;;;-2.30;100.00;101443.53;4977477;28;20041;-68
2020/12/19 06:42:36;;;;;;;47.22;20.10;;;;;;;-2.30;100.00;101433.19;4982320;28;20073;-68
2020/12/19 06:45:27;;;;;;;41.40;17.33;;;;;;;-2.29;100.00;101441.00;4985740;28;20038;-69
2020/12/19 06:47:54;;;;;;;56.83;21.37;;;;;;;-2.22;100.00;101438.69;4972360;28;20049;-68
2020/12/19 06:50:22;;;;;;;56.67;21.57;;;;;;;-2.22;100.00;101430.94;4985088;28;20046;-69
2020/12/19 06:52:54;;;;;;;59.50;24.90;;;;;;;-2.31;100.00;101429.72;5003591;28;20077;-69
2020/12/19 06:55:23;;;;;;;46.10;19.77;;;;;;;-2.31;100.00;101427.13;5002405;28;20045;-67
2020/12/19 06:57:53;;;;;;;52.00;21.40;;;;;;;-2.31;100.00;101427.13;5001919;28;20109;-69
2020/12/19 07:00:29;;;;;;;54.03;21.60;;;;;;;-2.24;100.00;101419.63;4995994;28;20041;-69
2020/12/19 07:03:00;;;;;;;59.03;24.23;;;;;;;-2.16;100.00;101429.50;5004691;28;20041;-68
2020/12/19 07:05:31;;;;;;;52.00;22.57;;;;;;;-2.17;100.00;101421.69;4999767;28;20038;-69
2020/12/19 07:08:20;;;;;;;59.67;23.10;;;;;;;-2.13;100.00;101420.97;4987854;28;21666;-69
2020/12/19 07:10:47;;;;;;;50.43;21.40;;;;;;;-2.14;100.00;101417.50;4981396;28;20049;-69
2020/12/19 07:13:14;;;;;;;63.97;26.07;;;;;;;-2.09;100.00;101421.19;4971403;28;20081;-69
2020/12/19 07:15:48;;;;;;;53.90;23.07;;;;;;;-2.05;100.00;101422.19;5004369;28;20066;-69
2020/12/19 07:18:25;;;;;;;53.20;22.35;;;;;;;-2.06;100.00;101431.66;4986557;28;20037;-69
2020/12/19 07:21:05;;;;;;;54.43;22.67;;;;;;;-2.10;100.00;101436.63;4967251;28;20049;-69
2020/12/19 07:23:32;;;;;;;59.87;22.83;;;;;;;-2.10;100.00;101423.69;5003490;28;20573;-69
2020/12/19 07:25:59;;;;;;;56.80;24.33;;;;;;;-2.05;100.00;101432.53;4986810;28;20042;-69
2020/12/19 07:28:25;;;;;;;82.10;31.83;;;;;;;-1.90;100.00;101429.72;4985948;28;20128;-69
2020/12/19 07:30:51;;;;;;;62.20;24.50;;;;;;;-1.89;100.00;101423.72;4983857;28;20092;-70
2020/12/19 07:33:18;;;;;;;68.17;26.83;;;;;;;-1.83;100.00;101429.16;4980843;28;20099;-69
2020/12/19 07:35:44;;;;;;;59.23;25.97;;;;;;;-1.79;100.00;101420.69;4985426;28;20478;-70
2020/12/19 07:38:11;;;;;;;65.77;25.70;;;;;;;-1.73;100.00;101431.31;4984342;28;20129;-69
2020/12/19 07:40:37;;;;;;;61.83;25.13;;;;;;;-1.73;100.00;101433.91;4983867;28;20045;-69
2020/12/19 07:43:08;;;;;;;82.60;31.97;;;;;;;-1.70;100.00;101429.72;4998639;28;20116;-69
2020/12/19 07:45:35;;;;;;;62.03;26.57;;;;;;;-1.70;100.00;101440.09;4996934;28;20038;-71
2020/12/19 07:48:01;;;;;;;66.33;25.03;;;;;;;-1.72;100.00;101431.38;4975002;28;20594;-70
2020/12/19 07:50:29;;;;;;;61.00;25.07;;;;;;;-1.68;100.00;101426.31;4989268;28;20041;-71
2020/12/19 07:53:06;;;;;;;62.97;23.97;;;;;;;-1.66;100.00;101416.91;4998248;28;20261;-71
2020/12/19 07:55:34;;;;;;;60.60;24.00;;;;;;;-1.67;100.00;101416.03;4986208;28;20034;-71
2020/12/19 07:58:02;;;;;;;76.80;29.03;;;;;;;-1.60;100.00;101410.25;4984090;28;20038;-71
2020/12/19 08:00:29;;;;;;;60.70;26.13;;;;;;;-1.54;100.00;101412.22;4981632;28;20042;-71
2020/12/19 08:02:55;;;;;;;67.00;25.43;;;;;;;-1.54;100.00;101399.25;5001003;28;20065;-71
2020/12/19 08:05:22;;;;;;;51.57;25.63;;;;;;;-1.49;100.00;101395.16;4987854;28;20034;-70
2020/12/19 08:07:52;;;;;;;70.30;27.80;;;;;;;-1.45;100.00;101386.66;4986113;28;20041;-71
2020/12/19 08:10:18;;;;;;;57.43;24.37;;;;;;;-1.33;100.00;101388.88;5003721;28;20034;-71
2020/12/19 08:12:45;;;;;;;83.03;30.83;;;;;;;-1.29;100.00;101391.63;4982624;28;20088;-71
2020/12/19 08:15:12;;;;;;;75.80;30.67;;;;;;;-1.24;100.00;101381.47;4973870;28;20096;-71
2020/12/19 08:17:46;;;;;;;79.00;30.87;;;;;;;-1.18;100.00;101405.00;4982702;28;20051;-71
2020/12/19 08:20:14;;;;;;;72.93;28.50;;;;;;;-1.11;100.00;101399.22;4969863;28;20058;-71
2020/12/19 08:22:40;;;;;;;71.60;28.40;;;;;;;-1.08;100.00;101414.06;4982719;28;20099;-71
2020/12/19 08:25:09;;;;;;;64.70;25.50;;;;;;;-1.06;100.00;101417.56;4984848;28;20073;-71
2020/12/19 08:27:35;;;;;;;75.80;33.23;;;;;;;-1.06;100.00;101409.78;5000862;28;20135;-71
2020/12/19 08:30:11;;;;;;;63.03;29.30;;;;;;;-1.02;100.00;101416.84;5003058;28;20038;-71
2020/12/19 08:32:45;;;;;;;62.47;25.87;;;;;;;-0.98;100.00;101418.75;4986134;28;20531;-71
2020/12/19 08:35:18;;;;;;;71.60;27.33;;;;;;;-0.99;100.00;101417.00;4971314;28;20049;-71
2020/12/19 08:37:44;;;;;;;67.23;26.57;;;;;;;-0.93;100.00;101415.50;4986318;28;20046;-71
2020/12/19 08:40:13;;;;;;;55.33;25.00;;;;;;;-0.90;100.00;101406.97;4970599;28;20048;-71
2020/12/19 08:42:42;;;;;;;50.33;21.40;;;;;;;-0.88;100.00;101407.91;4996797;28;20598;-71
2020/12/19 08:45:14;;;;;;;64.20;24.53;;;;;;;-0.81;100.00;101404.72;4984944;28;20141;-72
2020/12/19 08:47:40;;;;;;;64.47;26.93;;;;;;;-0.72;100.00;101410.25;4996790;28;20041;-71
2020/12/19 08:50:07;;;;;;;61.90;25.03;;;;;;;-0.67;100.00;101411.31;4998489;28;20038;-71
2020/12/19 08:52:33;;;;;;;61.00;26.77;;;;;;;-0.60;100.00;101420.19;4984762;28;20034;-72
2020/12/19 08:54:59;;;;;;;57.27;23.53;;;;;;;-0.41;100.00;101421.75;5000790;28;20491;-72
2020/12/19 08:57:33;;;;;;;58.60;25.00;;;;;;;-0.45;100.00;101428.53;4969085;28;20137;-71
2020/12/19 09:00:12;;;;;;;53.55;24.13;;;;;;;-0.34;100.00;101434.09;4985452;28;20045;-70
2020/12/19 09:02:41;;;;;;;61.43;24.03;;;;;;;-0.17;100.00;101430.41;4970856;28;20152;-71
2020/12/19 09:05:54;;;;;;;59.63;25.43;;;;;;;-0.03;100.00;101428.28;4994067;28;20038;-71
2020/12/19 09:08:48;;;;;;;55.73;23.03;;;;;;;0.12;100.00;101440.94;4925006;28;20055;-71
2020/12/19 09:11:26;;;;;;;57.23;22.40;;;;;;;0.26;100.00;101430.19;4937869;28;20756;-71
2020/12/19 09:14:05;;;;;;;57.63;24.17;;;;;;;0.23;100.00;101418.78;4938618;28;20066;-71
2020/12/19 09:16:32;;;;;;;56.83;25.60;;;;;;;0.33;100.00;101432.94;4938776;28;20551;-71
2020/12/19 09:18:58;;;;;;;65.80;23.73;;;;;;;0.36;100.00;101431.34;4928425;28;20509;-71
2020/12/19 09:21:24;;;;;;;60.00;23.27;;;;;;;0.66;100.00;101425.38;4942511;28;20055;-70
2020/12/19 09:23:51;;;;;;;582.10;118.00;;;;;;;1.96;100.00;101422.28;4947412;28;20110;-70
2020/12/19 09:26:17;;;;;;;927.00;227.80;;;;;;;3.54;100.00;101426.88;4942311;28;20064;-71
2020/12/19 09:28:46;;;;;;;35.63;17.70;;;;;;;4.11;100.00;101418.34;4941635;28;20058;-69
2020/12/19 09:31:13;;;;;;;33.73;16.70;;;;;;;4.83;100.00;101406.47;4943517;28;20055;-69
2020/12/19 09:33:40;;;;;;;28.03;14.43;;;;;;;5.24;100.00;101407.94;4922829;28;20433;-71
2020/12/19 09:36:06;;;;;;;31.20;16.03;;;;;;;5.76;100.00;101399.81;4940433;28;20058;-70
2020/12/19 09:38:32;;;;;;;28.87;14.97;;;;;;;5.78;100.00;101404.19;4945311;28;20516;-70
2020/12/19 09:40:59;;;;;;;21.57;12.97;;;;;;;5.52;100.00;101403.91;4930638;29;20056;-71
2020/12/19 09:43:25;;;;;;;24.77;14.03;;;;;;;6.08;100.00;101408.06;4945981;28;20287;-70
2020/12/19 09:45:54;;;;;;;22.97;12.83;;;;;;;6.06;100.00;101399.31;4912919;29;20047;-69
2020/12/19 09:48:20;;;;;;;24.10;13.48;;;;;;;6.41;100.00;101400.50;4940420;28;20051;-68
2020/12/19 09:50:46;;;;;;;22.15;13.90;;;;;;;6.27;100.00;101401.22;4934139;28;20082;-68
2020/12/19 09:53:13;;;;;;;30.70;20.95;;;;;;;5.75;100.00;101392.81;4942742;28;20709;-69
2020/12/19 09:55:39;;;;;;;19.42;14.45;;;;;;;5.36;100.00;101394.97;4945475;28;20646;-68
2020/12/19 09:58:05;;;;;;;22.08;13.13;;;;;;;4.75;100.00;101398.50;4944313;28;20058;-69
2020/12/19 10:00:32;;;;;;;19.37;12.87;;;;;;;3.93;100.00;101398.88;4924092;28;20047;-69
2020/12/19 10:02:58;;;;;;;23.10;12.80;;;;;;;3.43;100.00;101408.34;4935439;28;20599;-69
2020/12/19 10:05:24;;;;;;;23.23;12.60;;;;;;;3.13;100.00;101405.97;4928196;28;20078;-70
2020/12/19 10:07:50;;;;;;;24.53;13.50;;;;;;;2.72;100.00;101402.44;4939227;28;20039;-69
2020/12/19 10:10:17;;;;;;;23.60;12.60;;;;;;;2.62;100.00;101401.34;4944066;28;20098;-69
2020/12/19 10:12:43;;;;;;;24.40;15.13;;;;;;;2.44;100.00;101409.63;4945094;28;20051;-70
2020/12/19 10:15:11;;;;;;;32.20;15.33;;;;;;;2.49;100.00;101394.94;4929154;28;20051;-69
2020/12/19 10:17:38;;;;;;;25.23;13.87;;;;;;;2.44;100.00;101403.53;4945106;28;20103;-70
2020/12/19 10:20:06;;;;;;;30.73;14.63;;;;;;;2.42;100.00;101410.41;4936391;28;20067;-69
2020/12/19 10:22:32;;;;;;;25.00;14.27;;;;;;;2.25;100.00;101403.03;4931385;29;20142;-69
2020/12/19 10:25:00;;;;;;;27.00;14.43;;;;;;;2.25;100.00;101405.66;4938159;28;20257;-70
2020/12/19 10:27:26;;;;;;;26.50;14.20;;;;;;;2.40;100.00;101410.38;4926685;29;20071;-70
2020/12/19 10:29:53;;;;;;;30.83;14.07;;;;;;;2.46;100.00;101391.38;4936805;28;20629;-70
2020/12/19 10:32:19;;;;;;;30.73;15.47;;;;;;;3.01;100.00;101387.41;4910040;29;20846;-70
2020/12/19 10:34:45;;;;;;;24.93;15.17;;;;;;;4.11;100.00;101385.25;4941544;28;20129;-70
2020/12/19 10:37:12;;;;;;;26.23;15.50;;;;;;;5.78;100.00;101377.09;4944484;28;20051;-70
2020/12/19 10:39:38;;;;;;;19.93;12.37;;;;;;;6.94;100.00;101373.72;4926173;29;20054;-71
2020/12/19 10:42:04;;;;;;;15.73;10.10;;;;;;;7.52;100.00;101376.63;4929859;29;20047;-70
2020/12/19 10:44:30;;;;;;;13.43;9.43;;;;;;;8.36;100.00;101371.53;4944599;28;20035;-70
2020/12/19 10:46:58;;;;;;;16.88;10.88;;;;;;;9.95;100.00;101352.53;4945085;28;20053;-70
2020/12/19 10:49:25;;;;;;;13.20;9.27;;;;;;;10.57;88.37;101355.59;4943673;28;20189;-71
2020/12/19 10:51:51;;;;;;;12.32;8.80;;;;;;;11.17;92.32;101354.06;4945488;28;20223;-70
2020/12/19 10:54:17;;;;;;;14.05;9.50;;;;;;;11.91;76.52;101347.81;4939694;28;20054;-69
2020/12/19 10:56:54;;;;;;;12.85;9.18;;;;;;;12.26;75.03;101342.84;4936638;28;20054;-69
2020/12/19 10:59:20;;;;;;;13.35;10.05;;;;;;;12.18;70.24;101338.56;4945061;29;20054;-70
2020/12/19 11:01:46;;;;;;;13.38;9.45;;;;;;;12.56;59.79;101328.19;4951704;28;20583;-70
2020/12/19 11:04:13;;;;;;;13.20;9.95;;;;;;;12.89;59.46;101349.69;4944592;28;20138;-70
2020/12/19 11:06:39;;;;;;;15.88;10.25;;;;;;;12.70;55.54;101354.47;4946072;28;20513;-70